Time;durP1;ratioP1;P1;durP2;ratioP2;P2;SDS_P1;SDS_P2;PMS_P1;PMS_P2;Temp;Humidity;BMP_temperature;BMP_pressure;BME280_temperature;BME280_humidity;BME280_pressure;Samples;Min_cycle;Max_cycle;Signal;HPM_P1;HPM_P2
2023/07/02 00:01:41;;;;;;;0.00;0.00;;;16.40;72.10;;;;;;5029128;28;20053;-67
2023/07/02 00:04:10;;;;;;;0.40;0.40;;;16.30;72.30;;;;;;5029837;28;20524;-67
2023/07/02 00:06:40;;;;;;;0.40;0.40;;;16.30;72.40;;;;;;5029919;28;20065;-67
2023/07/02 00:09:06;;;;;;;0.45;0.45;;;16.30;72.70;;;;;;5029392;28;20057;-68
2023/07/02 00:11:32;;;;;;;2.05;0.85;;;16.30;72.80;;;;;;5029705;28;20053;-67
2023/07/02 00:13:58;;;;;;;0.00;0.00;;;16.20;72.90;;;;;;5030302;28;20034;-67
2023/07/02 00:16:23;;;;;;;0.15;0.15;;;16.10;73.00;;;;;;5029538;28;20141;-68
2023/07/02 00:18:52;;;;;;;0.25;0.25;;;16.10;73.00;;;;;;5029213;28;20060;-68
2023/07/02 00:21:19;;;;;;;0.00;0.00;;;16.20;72.80;;;;;;5028745;28;20395;-67
2023/07/02 00:23:44;;;;;;;0.10;0.10;;;16.10;72.60;;;;;;5029576;28;20041;-67
2023/07/02 00:26:10;;;;;;;0.73;0.73;;;16.10;72.70;;;;;;5029853;28;20427;-67
2023/07/02 00:28:35;;;;;;;0.03;0.03;;;16.10;72.20;;;;;;5029094;28;20041;-67
2023/07/02 00:31:02;;;;;;;0.25;0.25;;;16.10;72.60;;;;;;5029385;28;20502;-67
2023/07/02 00:33:28;;;;;;;0.38;0.38;;;16.00;72.50;;;;;;5028436;28;20046;-67
2023/07/02 00:35:54;;;;;;;0.08;0.08;;;16.00;72.80;;;;;;5029848;28;20136;-67
2023/07/02 00:38:20;;;;;;;0.00;0.00;;;15.90;72.90;;;;;;5028801;28;20121;-67
2023/07/02 00:40:45;;;;;;;1.85;1.58;;;16.00;73.10;;;;;;5029187;28;20054;-67
2023/07/02 00:43:12;;;;;;;1.15;1.05;;;15.90;73.20;;;;;;5029498;28;20045;-67
2023/07/02 00:45:39;;;;;;;0.20;0.20;;;15.80;73.50;;;;;;5029254;28;20128;-67
2023/07/02 00:48:05;;;;;;;0.00;0.00;;;15.80;73.60;;;;;;5029266;28;20049;-67
2023/07/02 00:50:31;;;;;;;0.10;0.10;;;15.80;73.90;;;;;;5027003;28;20052;-67
2023/07/02 00:52:58;;;;;;;0.75;0.38;;;15.70;74.00;;;;;;5028133;28;20507;-67
2023/07/02 00:55:23;;;;;;;0.00;0.00;;;15.70;74.10;;;;;;5028589;28;20160;-67
2023/07/02 00:57:49;;;;;;;0.00;0.00;;;15.60;74.20;;;;;;5029258;28;20153;-67
2023/07/02 01:00:15;;;;;;;0.47;0.47;;;15.70;74.40;;;;;;5028716;28;20044;-68
2023/07/02 01:02:43;;;;;;;0.00;0.00;;;15.60;74.50;;;;;;5028026;28;20164;-67
2023/07/02 01:05:13;;;;;;;0.00;0.00;;;15.60;74.60;;;;;;5029080;28;20045;-67
2023/07/02 01:07:39;;;;;;;1.25;1.15;;;15.60;74.60;;;;;;5028807;28;20130;-68
2023/07/02 01:10:05;;;;;;;0.25;0.25;;;15.60;74.70;;;;;;5028858;28;20179;-67
2023/07/02 01:12:31;;;;;;;0.73;0.73;;;15.60;74.70;;;;;;5027491;28;20046;-67
2023/07/02 01:15:01;;;;;;;0.00;0.00;;;15.60;74.80;;;;;;5029083;28;20038;-67
2023/07/02 01:17:28;;;;;;;0.05;0.05;;;15.50;74.90;;;;;;5028477;28;20045;-67
2023/07/02 01:19:58;;;;;;;0.52;0.52;;;15.50;75.00;;;;;;5028773;28;20052;-67
2023/07/02 01:22:28;;;;;;;0.20;0.20;;;15.50;75.30;;;;;;5028990;28;20045;-67
2023/07/02 01:24:55;;;;;;;0.00;0.00;;;15.40;75.50;;;;;;5029203;28;20052;-67
2023/07/02 01:27:21;;;;;;;0.10;0.10;;;15.30;75.60;;;;;;5028464;28;20084;-68
2023/07/02 01:29:50;;;;;;;4.18;1.55;;;15.30;75.90;;;;;;5024404;28;20073;-67
2023/07/02 01:32:16;;;;;;;0.75;0.75;;;15.30;75.90;;;;;;5009246;28;20041;-67
2023/07/02 01:34:43;;;;;;;2.72;1.15;;;15.30;76.40;;;;;;5013650;28;20092;-67
2023/07/02 01:37:09;;;;;;;0.10;0.10;;;15.20;76.70;;;;;;5012107;28;20529;-67
2023/07/02 01:39:35;;;;;;;0.10;0.10;;;15.20;76.80;;;;;;5022336;28;20049;-68
2023/07/02 01:42:09;;;;;;;0.20;0.20;;;15.20;77.00;;;;;;5032084;28;20128;-67
2023/07/02 01:44:35;;;;;;;0.17;0.17;;;15.20;77.10;;;;;;5032812;28;20045;-67
2023/07/02 01:47:01;;;;;;;0.52;0.32;;;15.20;77.20;;;;;;5032913;28;20033;-68
2023/07/02 01:49:27;;;;;;;0.43;0.43;;;15.20;77.40;;;;;;5032412;28;20033;-67
2023/07/02 01:51:53;;;;;;;0.00;0.00;;;15.20;77.40;;;;;;5032012;28;20382;-67
2023/07/02 01:54:20;;;;;;;0.17;0.17;;;15.20;77.40;;;;;;5031815;28;20033;-67
2023/07/02 01:56:46;;;;;;;0.55;0.52;;;15.20;77.40;;;;;;5032672;28;20049;-67
2023/07/02 01:59:12;;;;;;;0.05;0.05;;;15.20;77.40;;;;;;5031881;28;20124;-67
2023/07/02 02:01:40;;;;;;;0.00;0.00;;;15.20;77.70;;;;;;5032414;28;20490;-67
2023/07/02 02:04:10;;;;;;;0.30;0.28;;;15.20;77.60;;;;;;5032013;28;20038;-68
2023/07/02 02:06:36;;;;;;;0.85;0.73;;;15.20;77.40;;;;;;5031429;28;20056;-67
2023/07/02 02:09:05;;;;;;;0.55;0.55;;;15.20;77.70;;;;;;5032134;28;20045;-67
2023/07/02 02:11:32;;;;;;;0.08;0.08;;;15.10;78.00;;;;;;5032015;28;20049;-68
2023/07/02 02:13:58;;;;;;;0.00;0.00;;;15.10;78.10;;;;;;5031906;28;20092;-68
2023/07/02 02:16:23;;;;;;;1.80;1.48;;;15.10;78.20;;;;;;5032093;28;20073;-68
2023/07/02 02:18:52;;;;;;;0.57;0.57;;;15.10;78.10;;;;;;5031708;28;20079;-68
2023/07/02 02:21:19;;;;;;;0.00;0.00;;;15.10;78.10;;;;;;5032189;28;20081;-68
2023/07/02 02:23:45;;;;;;;0.55;0.55;;;15.10;78.10;;;;;;5032219;28;20413;-68
2023/07/02 02:26:10;;;;;;;0.00;0.00;;;15.10;78.00;;;;;;5031552;28;20060;-68
2023/07/02 02:28:36;;;;;;;0.40;0.40;;;15.00;78.10;;;;;;5031688;28;20048;-67
2023/07/02 02:31:02;;;;;;;0.65;0.65;;;15.00;78.20;;;;;;5032325;28;20434;-68
2023/07/02 02:33:28;;;;;;;0.00;0.00;;;15.10;78.20;;;;;;5032020;28;20103;-68
2023/07/02 02:35:53;;;;;;;0.00;0.00;;;15.00;78.40;;;;;;5031631;28;20053;-68
2023/07/02 02:38:19;;;;;;;0.00;0.00;;;15.00;78.50;;;;;;5031132;28;20037;-68
2023/07/02 02:40:45;;;;;;;0.30;0.30;;;15.10;78.50;;;;;;5031736;28;20082;-67
2023/07/02 02:43:10;;;;;;;0.30;0.30;;;15.10;78.60;;;;;;5031640;28;20560;-68
2023/07/02 02:45:36;;;;;;;0.00;0.00;;;15.10;79.00;;;;;;5029470;28;20502;-69
2023/07/02 02:48:01;;;;;;;1.90;1.27;;;15.10;78.80;;;;;;5031888;28;20053;-68
2023/07/02 02:50:27;;;;;;;0.10;0.10;;;15.10;78.80;;;;;;5030873;28;20045;-68
2023/07/02 02:52:53;;;;;;;0.10;0.10;;;15.10;78.70;;;;;;5030962;28;20113;-68
2023/07/02 02:55:18;;;;;;;0.32;0.32;;;15.10;78.60;;;;;;5012849;28;20395;-68
2023/07/02 02:57:44;;;;;;;0.00;0.00;;;15.10;78.00;;;;;;5011739;28;20487;-68
2023/07/02 03:00:11;;;;;;;0.05;0.05;;;15.10;77.50;;;;;;5026455;28;20049;-68
2023/07/02 03:02:37;;;;;;;0.15;0.15;;;15.10;77.40;;;;;;5031652;28;20183;-68
2023/07/02 03:05:03;;;;;;;0.60;0.57;;;15.10;76.80;;;;;;5031180;28;20136;-68
2023/07/02 03:07:29;;;;;;;6.45;3.72;;;15.10;76.80;;;;;;5031186;28;20065;-68
2023/07/02 03:09:55;;;;;;;0.68;0.65;;;15.10;76.80;;;;;;5030164;28;20060;-69
2023/07/02 03:12:21;;;;;;;0.00;0.00;;;15.10;76.70;;;;;;5031177;28;20642;-68
2023/07/02 03:14:47;;;;;;;1.42;1.33;;;15.10;76.60;;;;;;5025410;28;20127;-68
2023/07/02 03:17:13;;;;;;;0.22;0.22;;;15.20;76.40;;;;;;5031013;28;20628;-68
2023/07/02 03:19:38;;;;;;;0.28;0.28;;;15.20;76.30;;;;;;5031031;28;20140;-68
2023/07/02 03:22:04;;;;;;;0.52;0.52;;;15.20;76.20;;;;;;5030274;28;20054;-68
2023/07/02 03:24:30;;;;;;;0.30;0.30;;;15.20;76.40;;;;;;5029006;28;20478;-68
2023/07/02 03:26:55;;;;;;;0.15;0.15;;;15.20;76.50;;;;;;5030455;28;20109;-68
2023/07/02 03:29:21;;;;;;;0.28;0.28;;;15.30;76.30;;;;;;5029986;28;20033;-69
2023/07/02 03:31:47;;;;;;;0.40;0.40;;;15.30;76.30;;;;;;5030720;28;20052;-69
2023/07/02 03:34:12;;;;;;;0.52;0.43;;;15.30;76.40;;;;;;5030123;28;20112;-69
2023/07/02 03:36:38;;;;;;;0.20;0.20;;;15.30;76.40;;;;;;5031072;28;20123;-68
2023/07/02 03:39:04;;;;;;;0.00;0.00;;;15.40;76.30;;;;;;5030373;28;20045;-69
2023/07/02 03:41:30;;;;;;;3.10;1.48;;;15.40;76.20;;;;;;5030076;28;20050;-68
2023/07/02 03:43:56;;;;;;;0.10;0.10;;;15.40;76.20;;;;;;5029198;28;20050;-67
2023/07/02 03:46:21;;;;;;;0.20;0.20;;;15.40;76.30;;;;;;5030505;28;20042;-68
2023/07/02 03:48:47;;;;;;;0.20;0.20;;;15.40;76.30;;;;;;5030293;28;20056;-67
2023/07/02 03:51:14;;;;;;;0.00;0.00;;;15.40;76.00;;;;;;5030161;28;20046;-67
2023/07/02 03:53:40;;;;;;;0.10;0.10;;;15.40;75.90;;;;;;5022697;28;20034;-68
2023/07/02 03:56:06;;;;;;;1.08;0.85;;;15.30;75.90;;;;;;5011070;28;20116;-68
2023/07/02 03:58:31;;;;;;;0.30;0.30;;;15.30;75.80;;;;;;5011070;28;20081;-67
2023/07/02 04:00:58;;;;;;;0.10;0.10;;;15.30;75.90;;;;;;5018164;28;20042;-68
2023/07/02 04:03:24;;;;;;;0.00;0.00;;;15.30;75.60;;;;;;5015398;28;20046;-69
2023/07/02 04:05:49;;;;;;;0.47;0.47;;;15.20;74.70;;;;;;5025966;28;20056;-68
2023/07/02 04:08:15;;;;;;;0.10;0.10;;;15.20;74.60;;;;;;5028798;28;20095;-68
2023/07/02 04:10:41;;;;;;;0.00;0.00;;;15.10;74.20;;;;;;5029549;28;20095;-68
2023/07/02 04:13:07;;;;;;;0.05;0.05;;;15.10;73.60;;;;;;5020090;28;20048;-68
2023/07/02 04:15:32;;;;;;;0.30;0.30;;;15.10;73.50;;;;;;5022759;28;20084;-67
2023/07/02 04:17:58;;;;;;;0.00;0.00;;;15.10;73.90;;;;;;5030368;28;20041;-68
2023/07/02 04:20:25;;;;;;;0.00;0.00;;;15.10;73.00;;;;;;5030209;28;20056;-67
2023/07/02 04:22:50;;;;;;;5.30;1.27;;;15.10;72.70;;;;;;5029336;28;20051;-67
2023/07/02 04:25:16;;;;;;;0.35;0.35;;;15.10;73.10;;;;;;5029209;28;20486;-68
2023/07/02 04:27:42;;;;;;;0.05;0.05;;;15.10;72.90;;;;;;5029749;28;20148;-67
2023/07/02 04:30:09;;;;;;;0.25;0.25;;;15.10;72.10;;;;;;5028597;28;20064;-67
2023/07/02 04:32:36;;;;;;;0.00;0.00;;;15.10;72.60;;;;;;5021493;28;20042;-68
2023/07/02 04:35:02;;;;;;;0.00;0.00;;;15.10;73.10;;;;;;5027565;28;20041;-68
2023/07/02 04:37:28;;;;;;;1.85;1.65;;;15.10;73.10;;;;;;5029530;28;20103;-67
2023/07/02 04:39:54;;;;;;;0.00;0.00;;;15.10;73.70;;;;;;5029003;28;20123;-67
2023/07/02 04:42:19;;;;;;;0.10;0.10;;;15.20;74.00;;;;;;5029337;28;20457;-67
2023/07/02 04:44:45;;;;;;;0.10;0.10;;;15.20;74.40;;;;;;5028977;28;20038;-67
2023/07/02 04:47:11;;;;;;;0.15;0.15;;;15.10;74.60;;;;;;5029377;28;20100;-67
2023/07/02 04:49:37;;;;;;;0.30;0.30;;;15.20;74.30;;;;;;5029215;28;20591;-67
2023/07/02 04:52:03;;;;;;;0.10;0.10;;;15.20;73.60;;;;;;5024127;28;20046;-67
2023/07/02 04:54:29;;;;;;;0.22;0.22;;;15.20;73.60;;;;;;5015990;28;20033;-66
2023/07/02 04:56:54;;;;;;;0.00;0.00;;;15.20;73.40;;;;;;5028719;28;20088;-67
2023/07/02 04:59:21;;;;;;;0.10;0.10;;;15.20;73.00;;;;;;5028538;28;20061;-67
2023/07/02 05:01:47;;;;;;;1.98;0.95;;;15.30;73.10;;;;;;5029552;28;20461;-67
2023/07/02 05:04:13;;;;;;;1.02;0.95;;;15.40;72.60;;;;;;5026759;28;20041;-67
2023/07/02 05:06:38;;;;;;;0.00;0.00;;;15.40;72.20;;;;;;5027049;28;20041;-67
2023/07/02 05:09:04;;;;;;;0.10;0.10;;;15.50;72.40;;;;;;5028732;28;20107;-67
2023/07/02 05:11:30;;;;;;;0.00;0.00;;;15.40;72.20;;;;;;5026458;28;20815;-67
2023/07/02 05:13:55;;;;;;;0.65;0.65;;;15.40;72.90;;;;;;5013283;28;20044;-68
2023/07/02 05:16:21;;;;;;;0.00;0.00;;;15.30;72.90;;;;;;5027023;28;20124;-67
2023/07/02 05:18:46;;;;;;;0.00;0.00;;;15.40;73.10;;;;;;5029198;28;20037;-67
2023/07/02 05:21:12;;;;;;;0.45;0.45;;;15.30;73.30;;;;;;5028959;28;20516;-67
2023/07/02 05:23:37;;;;;;;0.52;0.47;;;15.30;73.60;;;;;;5027649;28;20409;-67
2023/07/02 05:26:03;;;;;;;0.20;0.20;;;15.30;73.80;;;;;;5024532;28;20079;-67
2023/07/02 05:28:29;;;;;;;0.28;0.28;;;15.30;74.10;;;;;;5008947;28;20052;-67
2023/07/02 05:30:54;;;;;;;0.28;0.28;;;15.30;74.40;;;;;;5015200;28;20053;-67
2023/07/02 05:33:21;;;;;;;0.30;0.30;;;15.30;74.90;;;;;;5028576;28;20080;-67
2023/07/02 05:35:47;;;;;;;1.83;1.00;;;15.50;75.10;;;;;;5028986;28;20049;-67
2023/07/02 05:38:13;;;;;;;0.35;0.35;;;15.50;74.80;;;;;;5028596;28;20391;-67
2023/07/02 05:40:39;;;;;;;0.08;0.08;;;15.60;74.00;;;;;;5028504;28;20798;-68
2023/07/02 05:43:04;;;;;;;0.20;0.20;;;15.70;72.30;;;;;;5027936;28;20057;-67
2023/07/02 05:45:30;;;;;;;0.30;0.30;;;15.80;72.60;;;;;;5027615;28;20055;-67
2023/07/02 05:47:55;;;;;;;0.00;0.00;;;15.90;72.50;;;;;;5027779;28;20129;-67
2023/07/02 05:50:21;;;;;;;1.73;0.47;;;16.00;72.40;;;;;;5028115;28;20079;-67
2023/07/02 05:52:47;;;;;;;0.30;0.30;;;16.10;72.20;;;;;;5027855;28;20044;-68
2023/07/02 05:55:12;;;;;;;0.00;0.00;;;16.10;72.10;;;;;;5022732;28;20040;-67
2023/07/02 05:57:38;;;;;;;0.00;0.00;;;16.10;71.90;;;;;;5028099;28;20672;-67
2023/07/02 06:00:07;;;;;;;0.00;0.00;;;16.00;70.80;;;;;;5028341;28;20038;-67
2023/07/02 06:02:33;;;;;;;0.08;0.08;;;15.90;70.70;;;;;;5024234;28;20037;-67
2023/07/02 06:04:58;;;;;;;0.00;0.00;;;16.00;71.00;;;;;;5017332;28;20406;-67
2023/07/02 06:07:27;;;;;;;1.27;1.00;;;16.00;70.60;;;;;;5016904;28;20057;-67
2023/07/02 06:09:53;;;;;;;0.05;0.05;;;16.00;70.90;;;;;;5021776;28;20560;-67
2023/07/02 06:12:20;;;;;;;0.40;0.40;;;16.00;70.80;;;;;;5023245;28;20041;-67
2023/07/02 06:14:46;;;;;;;3.50;1.45;;;16.10;71.30;;;;;;5014161;28;20139;-67
2023/07/02 06:17:11;;;;;;;0.98;0.98;;;16.10;70.90;;;;;;5019639;28;20744;-67
2023/07/02 06:19:38;;;;;;;0.90;0.85;;;16.10;71.20;;;;;;5028869;28;20053;-67
2023/07/02 06:22:03;;;;;;;1.52;0.98;;;16.20;71.10;;;;;;5029453;28;20049;-67
2023/07/02 06:24:29;;;;;;;3.10;0.95;;;16.20;70.50;;;;;;5024705;28;20446;-66
2023/07/02 06:26:55;;;;;;;0.00;0.00;;;16.20;69.50;;;;;;5031315;28;20068;-66
2023/07/02 06:29:23;;;;;;;0.00;0.00;;;16.20;69.80;;;;;;5030467;28;20058;-66
2023/07/02 06:31:49;;;;;;;0.28;0.28;;;16.20;69.40;;;;;;5030375;28;20049;-66
2023/07/02 06:34:14;;;;;;;0.00;0.00;;;16.30;69.70;;;;;;5030376;28;20127;-65
2023/07/02 06:36:40;;;;;;;0.00;0.00;;;16.30;69.40;;;;;;5031147;28;20037;-66
2023/07/02 06:39:06;;;;;;;2.50;1.95;;;16.40;70.20;;;;;;5029457;28;20148;-66
2023/07/02 06:41:31;;;;;;;0.30;0.30;;;16.50;69.30;;;;;;5030841;28;20447;-65
2023/07/02 06:43:57;;;;;;;3.85;2.03;;;16.50;68.10;;;;;;5031011;28;20057;-67
2023/07/02 06:46:22;;;;;;;1.20;1.08;;;16.60;69.00;;;;;;5023647;28;20132;-65
2023/07/02 06:48:48;;;;;;;0.65;0.65;;;16.60;68.00;;;;;;5029328;28;20037;-66
2023/07/02 06:51:14;;;;;;;0.00;0.00;;;16.60;66.70;;;;;;5030381;28;20046;-65
2023/07/02 06:53:41;;;;;;;0.00;0.00;;;16.60;67.60;;;;;;5029287;28;20045;-66
2023/07/02 06:56:10;;;;;;;0.00;0.00;;;16.60;67.30;;;;;;5030761;28;20402;-66
2023/07/02 06:58:35;;;;;;;0.00;0.00;;;16.60;67.90;;;;;;5030188;28;20041;-66
2023/07/02 07:01:01;;;;;;;0.00;0.00;;;16.60;68.60;;;;;;5030733;28;20064;-66
2023/07/02 07:03:27;;;;;;;1.55;1.35;;;16.60;67.60;;;;;;5034954;28;20033;-65
2023/07/02 07:05:53;;;;;;;0.00;0.00;;;16.70;67.60;;;;;;5025228;28;20081;-67
2023/07/02 07:08:18;;;;;;;0.32;0.32;;;16.60;68.50;;;;;;5015300;28;20108;-65
2023/07/02 07:10:45;;;;;;;0.03;0.03;;;16.50;68.50;;;;;;5027507;28;20049;-65
2023/07/02 07:13:11;;;;;;;0.15;0.15;;;16.60;68.80;;;;;;5029514;28;20153;-65
2023/07/02 07:15:36;;;;;;;0.00;0.00;;;16.70;67.70;;;;;;5022518;28;20411;-65
2023/07/02 07:18:03;;;;;;;0.10;0.10;;;16.60;69.20;;;;;;5029532;28;20034;-66
2023/07/02 07:20:29;;;;;;;0.15;0.15;;;16.80;69.30;;;;;;5019866;28;20053;-66
2023/07/02 07:22:55;;;;;;;0.20;0.20;;;17.00;68.30;;;;;;5028556;28;20066;-66
2023/07/02 07:25:21;;;;;;;0.00;0.00;;;17.00;67.90;;;;;;5029487;28;20407;-66
2023/07/02 07:27:47;;;;;;;0.00;0.00;;;16.90;66.40;;;;;;5026497;28;20038;-65
2023/07/02 07:30:14;;;;;;;0.00;0.00;;;16.70;66.30;;;;;;5017432;28;20056;-66
2023/07/02 07:32:40;;;;;;;0.75;0.57;;;16.60;67.10;;;;;;5024345;28;20053;-66
2023/07/02 07:35:06;;;;;;;0.00;0.00;;;16.60;68.50;;;;;;5025499;28;20054;-65
2023/07/02 07:37:32;;;;;;;0.47;0.45;;;16.60;69.30;;;;;;5021712;28;20053;-66
2023/07/02 07:39:57;;;;;;;0.20;0.20;;;16.60;69.90;;;;;;5009091;28;20085;-65
2023/07/02 07:42:23;;;;;;;0.00;0.00;;;16.70;69.70;;;;;;5022368;28;20463;-66
2023/07/02 07:44:49;;;;;;;0.00;0.00;;;16.60;69.90;;;;;;5020938;28;20057;-66
2023/07/02 07:47:14;;;;;;;0.00;0.00;;;16.80;70.10;;;;;;5012968;28;20550;-66
2023/07/02 07:49:40;;;;;;;0.00;0.00;;;17.00;67.70;;;;;;5029537;28;20076;-67
2023/07/02 07:52:06;;;;;;;15.55;2.65;;;17.10;67.20;;;;;;5019411;28;20143;-67
2023/07/02 07:54:34;;;;;;;0.05;0.05;;;17.00;67.70;;;;;;5020029;28;20088;-68
2023/07/02 07:57:00;;;;;;;0.15;0.15;;;16.80;68.10;;;;;;5026060;28;20034;-66
2023/07/02 07:59:25;;;;;;;0.00;0.00;;;16.80;69.10;;;;;;5028062;28;20054;-67
2023/07/02 08:01:51;;;;;;;0.03;0.03;;;16.90;68.70;;;;;;5028312;28;20046;-67
2023/07/02 08:04:16;;;;;;;0.00;0.00;;;17.00;69.30;;;;;;5028655;28;20053;-67
2023/07/02 08:06:42;;;;;;;0.00;0.00;;;17.10;67.50;;;;;;5027000;28;20052;-67
2023/07/02 08:09:08;;;;;;;0.22;0.22;;;17.10;66.50;;;;;;5024942;28;20132;-67
2023/07/02 08:11:34;;;;;;;0.00;0.00;;;17.10;66.30;;;;;;5021753;28;20057;-67
2023/07/02 08:14:00;;;;;;;0.00;0.00;;;17.10;67.10;;;;;;5027915;28;20046;-66
2023/07/02 08:16:25;;;;;;;0.08;0.08;;;17.20;65.50;;;;;;5028232;28;20045;-66
2023/07/02 08:18:51;;;;;;;0.25;0.25;;;17.20;65.90;;;;;;5025431;28;20562;-64
2023/07/02 08:21:16;;;;;;;0.00;0.00;;;17.20;65.60;;;;;;5028376;28;20037;-66
2023/07/02 08:23:46;;;;;;;0.00;0.00;;;17.40;65.70;;;;;;5017944;28;20041;-66
2023/07/02 08:26:12;;;;;;;0.22;0.22;;;17.40;64.00;;;;;;5023891;28;20051;-66
2023/07/02 08:28:39;;;;;;;0.35;0.35;;;17.40;64.20;;;;;;5025239;28;20053;-67
2023/07/02 08:31:04;;;;;;;0.00;0.00;;;17.50;65.80;;;;;;5015142;28;20555;-66
2023/07/02 08:33:30;;;;;;;0.00;0.00;;;17.30;65.90;;;;;;5029091;28;20041;-66
2023/07/02 08:35:57;;;;;;;0.43;0.43;;;17.30;66.90;;;;;;5029093;28;20136;-66
2023/07/02 08:38:23;;;;;;;0.10;0.10;;;17.10;68.30;;;;;;5029269;28;20564;-66
2023/07/02 08:40:52;;;;;;;0.00;0.00;;;17.00;68.80;;;;;;5027412;28;20475;-66
2023/07/02 08:43:17;;;;;;;1.17;0.80;;;17.00;68.90;;;;;;5015277;28;20046;-67
2023/07/02 08:45:44;;;;;;;0.75;0.75;;;17.00;69.00;;;;;;5013703;28;20048;-66
2023/07/02 08:48:11;;;;;;;0.52;0.52;;;17.00;68.80;;;;;;5024493;28;20124;-67
2023/07/02 08:50:37;;;;;;;3.13;1.58;;;16.90;68.90;;;;;;5025693;28;20084;-66
2023/07/02 08:53:02;;;;;;;0.10;0.08;;;16.90;68.50;;;;;;5022111;28;20466;-67
2023/07/02 08:55:29;;;;;;;0.00;0.00;;;16.90;68.00;;;;;;5029025;28;20136;-67
2023/07/02 08:57:59;;;;;;;0.82;0.82;;;16.80;67.80;;;;;;5029046;28;20052;-68
2023/07/02 09:00:25;;;;;;;0.00;0.00;;;16.60;67.90;;;;;;5023247;28;20124;-67
2023/07/02 09:02:51;;;;;;;0.70;0.63;;;16.60;67.00;;;;;;5028290;28;20483;-68
2023/07/02 09:05:17;;;;;;;0.00;0.00;;;16.80;67.30;;;;;;5028665;28;20489;-68
2023/07/02 09:07:47;;;;;;;0.00;0.00;;;17.10;68.70;;;;;;5028633;28;20054;-67
2023/07/02 09:10:26;;;;;;;0.30;0.30;;;17.30;68.20;;;;;;5027983;28;20061;-67
2023/07/02 09:13:05;;;;;;;0.43;0.43;;;17.60;67.90;;;;;;5011281;28;20164;-67
2023/07/02 09:15:39;;;;;;;0.00;0.00;;;17.70;66.10;;;;;;5019113;28;20033;-66
2023/07/02 09:18:21;;;;;;;0.17;0.17;;;17.60;64.50;;;;;;5017238;28;20074;-65
2023/07/02 09:20:51;;;;;;;0.00;0.00;;;17.50;65.50;;;;;;5018452;28;20422;-65
2023/07/02 09:23:16;;;;;;;0.00;0.00;;;17.10;67.20;;;;;;5029581;28;20115;-66
2023/07/02 09:25:42;;;;;;;3.25;1.98;;;17.30;68.70;;;;;;5026340;28;20053;-66
2023/07/02 09:28:34;;;;;;;0.13;0.13;;;17.60;67.60;;;;;;5009107;28;20117;-65
2023/07/02 09:30:59;;;;;;;0.10;0.10;;;17.60;67.20;;;;;;5007931;28;20107;-66
2023/07/02 09:33:27;;;;;;;0.00;0.00;;;17.60;67.00;;;;;;5011980;28;20550;-66
2023/07/02 09:35:53;;;;;;;1.13;0.85;;;17.60;66.60;;;;;;5027533;28;20046;-66
2023/07/02 09:38:19;;;;;;;0.00;0.00;;;17.70;66.80;;;;;;5027588;28;20045;-66
2023/07/02 09:40:50;;;;;;;0.10;0.10;;;17.70;65.60;;;;;;5028265;28;20041;-66
2023/07/02 09:43:17;;;;;;;0.40;0.40;;;17.60;64.50;;;;;;5028259;28;20042;-66
2023/07/02 09:45:51;;;;;;;0.00;0.00;;;17.60;65.40;;;;;;5028207;28;20056;-67
2023/07/02 09:48:17;;;;;;;0.30;0.30;;;17.50;63.10;;;;;;5027869;28;20045;-67
2023/07/02 09:50:48;;;;;;;0.65;0.65;;;17.50;63.50;;;;;;5027689;28;20049;-67
2023/07/02 09:53:14;;;;;;;1.13;0.70;;;17.60;63.50;;;;;;5021881;28;20107;-68
2023/07/02 09:55:42;;;;;;;0.00;0.00;;;17.50;65.60;;;;;;5026762;28;20342;-67
2023/07/02 09:58:08;;;;;;;0.00;0.00;;;17.50;66.30;;;;;;5028351;28;20141;-69
2023/07/02 10:00:34;;;;;;;5.00;1.85;;;17.40;65.60;;;;;;5028125;28;20136;-69
2023/07/02 10:03:00;;;;;;;0.05;0.05;;;17.40;66.60;;;;;;5030758;28;20045;-69
2023/07/02 10:05:30;;;;;;;0.57;0.57;;;17.40;66.90;;;;;;5019272;28;20132;-68
2023/07/02 10:07:57;;;;;;;0.00;0.00;;;17.40;66.50;;;;;;5023244;28;20411;-68
2023/07/02 10:10:30;;;;;;;0.00;0.00;;;17.40;66.40;;;;;;5013680;28;20053;-69
2023/07/02 10:12:56;;;;;;;0.00;0.00;;;17.30;67.50;;;;;;5030493;28;20584;-69
2023/07/02 10:15:27;;;;;;;0.00;0.00;;;17.20;67.70;;;;;;5030744;28;20502;-69
2023/07/02 10:17:58;;;;;;;0.00;0.00;;;17.30;67.30;;;;;;5030759;28;20132;-67
2023/07/02 10:20:40;;;;;;;0.00;0.00;;;17.50;65.70;;;;;;5031399;28;20052;-67
2023/07/02 10:23:06;;;;;;;0.40;0.40;;;17.50;64.80;;;;;;5031444;28;20188;-67
2023/07/02 10:25:37;;;;;;;0.00;0.00;;;17.50;66.30;;;;;;5031556;28;20076;-67
2023/07/02 10:28:22;;;;;;;0.00;0.00;;;17.40;66.10;;;;;;5031575;28;20620;-67
2023/07/02 10:30:48;;;;;;;0.00;0.00;;;17.40;65.50;;;;;;5030612;28;20051;-68
2023/07/02 10:33:16;;;;;;;0.00;0.00;;;17.50;65.90;;;;;;5031358;28;20060;-67
2023/07/02 10:35:44;;;;;;;0.00;0.00;;;17.60;65.30;;;;;;5031114;28;20510;-67
2023/07/02 10:43:28;;;;;;;10.80;1.45;;;17.60;65.50;;;;;;4581237;28;20088;-64
2023/07/02 10:45:54;;;;;;;0.05;0.05;;;17.60;66.40;;;;;;5015368;28;20059;-64
2023/07/02 10:48:20;;;;;;;0.00;0.00;;;17.50;66.20;;;;;;5049807;28;20566;-64
2023/07/02 10:50:46;;;;;;;2.75;1.75;;;17.50;66.80;;;;;;5050637;28;20041;-64
2023/07/02 10:53:19;;;;;;;0.00;0.00;;;17.50;67.70;;;;;;5016320;28;20056;-65
2023/07/02 10:55:45;;;;;;;0.00;0.00;;;17.50;67.80;;;;;;5050372;28;20052;-64
2023/07/02 10:58:14;;;;;;;0.13;0.13;;;17.30;64.70;;;;;;5050843;28;20049;-64
2023/07/02 11:00:46;;;;;;;1.17;0.93;;;17.40;64.90;;;;;;5050539;28;20052;-65
2023/07/02 11:03:23;;;;;;;0.40;0.40;;;17.40;66.10;;;;;;5050987;28;20045;-65
2023/07/02 11:05:49;;;;;;;0.00;0.00;;;17.30;65.40;;;;;;5044250;28;20118;-64
2023/07/02 11:08:15;;;;;;;1.45;0.55;;;17.50;64.80;;;;;;5050731;28;20064;-64
2023/07/02 11:10:41;;;;;;;0.55;0.55;;;17.50;64.10;;;;;;5050065;28;20045;-65
2023/07/02 11:13:17;;;;;;;0.00;0.00;;;17.40;65.80;;;;;;5050225;28;20128;-65
2023/07/02 11:15:43;;;;;;;0.35;0.35;;;17.30;66.70;;;;;;5050763;28;20048;-65
2023/07/02 11:18:16;;;;;;;0.00;0.00;;;17.20;67.30;;;;;;5032441;28;20397;-64
2023/07/02 11:20:44;;;;;;;1.35;0.47;;;17.30;66.50;;;;;;5044436;28;20052;-64
2023/07/02 11:23:18;;;;;;;0.00;0.00;;;17.30;64.80;;;;;;5049847;28;20497;-64
2023/07/02 11:25:57;;;;;;;0.00;0.00;;;17.50;63.50;;;;;;5048514;28;20076;-67
2023/07/02 11:28:24;;;;;;;0.00;0.00;;;17.70;63.00;;;;;;5048073;28;20045;-65
2023/07/02 11:30:50;;;;;;;0.00;0.00;;;17.80;62.60;;;;;;5048475;28;20544;-65
2023/07/02 11:33:15;;;;;;;0.00;0.00;;;17.80;59.60;;;;;;5030729;28;20091;-66
2023/07/02 11:35:43;;;;;;;0.00;0.00;;;17.80;61.30;;;;;;5048793;28;20037;-66
2023/07/02 11:38:10;;;;;;;0.00;0.00;;;17.80;61.00;;;;;;5049285;28;20041;-65
2023/07/02 11:40:36;;;;;;;0.00;0.00;;;17.90;61.50;;;;;;5049983;28;20095;-66
2023/07/02 11:43:02;;;;;;;0.73;0.73;;;17.80;61.10;;;;;;5039290;28;20164;-66
2023/07/02 11:45:28;;;;;;;0.00;0.00;;;17.70;60.80;;;;;;5030053;28;20592;-66
2023/07/02 11:47:54;;;;;;;0.00;0.00;;;18.00;62.10;;;;;;5029818;28;20044;-66
2023/07/02 11:50:19;;;;;;;1.42;1.33;;;18.10;61.80;;;;;;5012005;28;20419;-67
2023/07/02 11:52:45;;;;;;;1.95;1.45;;;18.20;60.30;;;;;;5030342;28;20056;-66
2023/07/02 11:55:11;;;;;;;0.10;0.10;;;18.20;61.10;;;;;;5030193;28;20092;-66
2023/07/02 11:57:36;;;;;;;0.68;0.68;;;18.40;61.20;;;;;;5038937;28;20053;-66
2023/07/02 12:00:02;;;;;;;3.33;1.15;;;18.50;61.50;;;;;;5030006;28;20050;-66
2023/07/02 12:02:28;;;;;;;0.20;0.20;;;18.50;61.50;;;;;;5025453;28;20040;-67
2023/07/02 12:04:53;;;;;;;0.85;0.85;;;18.20;57.80;;;;;;5013132;28;20045;-67
2023/07/02 12:07:19;;;;;;;0.00;0.00;;;18.10;60.00;;;;;;5009952;28;20050;-66
2023/07/02 12:09:44;;;;;;;0.00;0.00;;;18.00;61.60;;;;;;5028066;28;20048;-66
2023/07/02 12:12:10;;;;;;;0.43;0.38;;;17.90;61.70;;;;;;5033813;28;20053;-66
2023/07/02 12:14:37;;;;;;;0.00;0.00;;;18.00;63.20;;;;;;5029406;28;20040;-66
2023/07/02 12:17:04;;;;;;;0.00;0.00;;;17.90;63.40;;;;;;5029408;28;20533;-66
2023/07/02 12:19:29;;;;;;;0.43;0.43;;;17.70;64.70;;;;;;5029729;28;20037;-66
2023/07/02 12:21:55;;;;;;;0.32;0.20;;;17.70;65.70;;;;;;5012097;28;20046;-66
2023/07/02 12:24:20;;;;;;;0.10;0.10;;;17.60;66.30;;;;;;5029266;28;20124;-67
2023/07/02 12:26:46;;;;;;;0.00;0.00;;;17.50;66.80;;;;;;5029067;28;20037;-66
2023/07/02 12:29:12;;;;;;;0.10;0.10;;;17.50;67.50;;;;;;5029146;28;20049;-67
2023/07/02 12:31:37;;;;;;;0.00;0.00;;;17.40;69.00;;;;;;5029507;28;20052;-66
2023/07/02 12:34:03;;;;;;;0.10;0.10;;;17.40;68.60;;;;;;5029087;28;20785;-66
2023/07/02 12:36:29;;;;;;;0.70;0.70;;;17.40;68.60;;;;;;5029117;28;20038;-67
2023/07/02 12:38:54;;;;;;;0.22;0.22;;;17.30;69.60;;;;;;5028992;28;20455;-66
2023/07/02 12:41:20;;;;;;;0.00;0.00;;;17.10;69.70;;;;;;5028411;28;20049;-67
2023/07/02 12:43:45;;;;;;;0.00;0.00;;;17.10;69.80;;;;;;5029060;28;20140;-67
2023/07/02 12:46:11;;;;;;;0.38;0.38;;;17.00;70.60;;;;;;5029268;28;20045;-66
2023/07/02 12:48:36;;;;;;;0.00;0.00;;;17.10;70.30;;;;;;5028950;28;20049;-67
2023/07/02 12:51:02;;;;;;;0.03;0.03;;;17.10;70.60;;;;;;5028037;28;20568;-67